KRKP/RKP METAR and TAF weather

Enter ICAO airport designator
Station Type Date Time Source
KRKP METAR 2024/06/14 02:53 UTC NOAA

KRKP 140253Z AUTO 11011KT 10SM CLR 31/24 A2987 RMK AO2 SLP117 T03060244 51009


Station Type Date Time Source
KRKP Decoded METAR 2024/06/14 02:53 UTC NOAA

ROCKPORT ARANSAS COUNTY AIRPORT , TX, United States (KRKP) 28-05N 97-03W 6M
Jun 13, 2024 - 10:53 PM EDT / 2024.06.14 0253 UTC
Wind: from the ESE (110 degrees) at 13 MPH (11 KT):0
Visibility: 10 mile(s):0
Sky conditions: clear
Temperature: 87.1 F (30.6 C)
Heat index: 97.3 F (36.3 C):1
Dew Point: 75.9 F (24.4 C)
Relative Humidity: 69%
Pressure (altimeter): 29.87 in. Hg (1011 hPa)
Pressure tendency: 0.03 inches (0.9 hPa) higher than three hours ago
ob: KRKP 140253Z AUTO 11011KT 10SM CLR 31/24 A2987 RMK AO2 SLP117 T03060244 51009
cycle: 3

Station Type Date Time Source
KRKP TAF UTC NOAA

Error!

Example: see airport list